Time;durP1;ratioP1;P1;durP2;ratioP2;P2;SDS_P1;SDS_P2;PMS_P1;PMS_P2;Temp;Humidity;BMP_temperature;BMP_pressure;BME280_temperature;BME280_humidity;BME280_pressure;Samples;Min_cycle;Max_cycle;Signal;HPM_P1;HPM_P2
2022/05/09 00:01:46;;;;;;;10.68;5.45;;;;;;;7.63;100.00;162561.22;4986824;28;20043;-58
2022/05/09 00:04:12;;;;;;;13.50;5.78;;;;;;;7.61;100.00;162555.88;4990621;28;20046;-58
2022/05/09 00:06:37;;;;;;;16.02;6.18;;;;;;;7.57;100.00;162545.06;4989660;28;20038;-58
2022/05/09 00:09:04;;;;;;;18.45;6.90;;;;;;;7.54;100.00;162537.00;4990997;28;20034;-58
2022/05/09 00:11:29;;;;;;;14.57;6.85;;;;;;;7.52;100.00;162531.59;4987885;28;20102;-58
2022/05/09 00:13:54;;;;;;;12.43;4.85;;;;;;;7.47;100.00;162518.16;4988794;28;20030;-58
2022/05/09 00:16:21;;;;;;;18.40;6.82;;;;;;;7.46;100.00;162515.44;4993842;28;20073;-58
2022/05/09 00:18:46;;;;;;;15.07;6.60;;;;;;;7.41;100.00;162503.31;4993590;28;20069;-57
2022/05/09 00:21:12;;;;;;;20.60;5.70;;;;;;;7.38;100.00;162493.91;4993486;28;20046;-58
2022/05/09 00:23:37;;;;;;;16.48;5.78;;;;;;;7.36;100.00;162489.88;4994990;28;20022;-57
2022/05/09 00:26:04;;;;;;;17.98;5.50;;;;;;;7.32;100.00;162477.75;4989968;28;20433;-58
2022/05/09 00:28:29;;;;;;;15.93;6.20;;;;;;;7.29;100.00;162472.34;4994755;28;20423;-58
2022/05/09 00:30:55;;;;;;;22.17;6.75;;;;;;;7.23;100.00;162456.19;4991049;28;20073;-58
2022/05/09 00:33:21;;;;;;;14.52;5.93;;;;;;;7.14;100.00;162431.94;4994307;28;20022;-58
2022/05/09 00:35:46;;;;;;;15.05;6.63;;;;;;;7.09;100.00;162419.81;4993344;28;20045;-58
2022/05/09 00:38:12;;;;;;;19.75;6.60;;;;;;;7.05;100.00;162407.66;4994818;28;20370;-58
2022/05/09 00:40:38;;;;;;;14.38;6.28;;;;;;;7.01;100.00;162396.91;4987943;28;20037;-58
2022/05/09 00:43:34;;;;;;;13.23;6.13;;;;;;;6.96;100.00;162386.13;4994944;28;20359;-58
2022/05/09 00:46:00;;;;;;;9.25;5.88;;;;;;;6.91;100.00;162372.66;4987969;28;20560;-58
2022/05/09 00:48:25;;;;;;;18.83;5.05;;;;;;;6.85;100.00;162356.53;4991232;28;20034;-58
2022/05/09 00:50:52;;;;;;;25.42;6.40;;;;;;;6.82;100.00;162349.78;4992870;28;20045;-58
2022/05/09 00:53:18;;;;;;;13.02;5.80;;;;;;;6.78;100.00;162337.66;4992171;28;20025;-58
2022/05/09 00:55:54;;;;;;;9.75;5.70;;;;;;;6.76;100.00;162332.28;4989065;28;20038;-58
2022/05/09 00:58:32;;;;;;;20.95;7.82;;;;;;;6.76;100.00;162332.28;4991948;28;20470;-58
2022/05/09 01:00:57;;;;;;;22.85;6.20;;;;;;;6.76;100.00;162333.66;4990169;28;20498;-58
2022/05/09 01:03:31;;;;;;;21.15;6.95;;;;;;;6.78;100.00;162337.66;4989193;28;20089;-58
2022/05/09 01:05:56;;;;;;;18.73;7.55;;;;;;;6.78;100.00;162339.00;4991650;28;20041;-58
2022/05/09 01:08:23;;;;;;;9.63;4.68;;;;;;;6.78;100.00;162337.66;4993932;28;20018;-57
2022/05/09 01:10:49;;;;;;;17.35;5.93;;;;;;;6.77;100.00;162336.34;4989357;28;20045;-58
2022/05/09 01:13:19;;;;;;;13.93;5.80;;;;;;;6.80;100.00;162343.06;4991053;28;20030;-58
2022/05/09 01:15:48;;;;;;;26.88;7.20;;;;;;;6.79;100.00;162340.38;4990223;28;20426;-57
2022/05/09 01:18:16;;;;;;;23.67;5.22;;;;;;;6.78;100.00;162339.00;4991126;28;20027;-57
2022/05/09 01:20:42;;;;;;;12.82;6.43;;;;;;;6.78;100.00;162337.66;4990338;28;20122;-58
2022/05/09 01:23:10;;;;;;;19.73;5.75;;;;;;;6.79;100.00;162340.38;4993734;28;20026;-58
2022/05/09 01:25:36;;;;;;;19.38;7.40;;;;;;;6.80;100.00;162343.06;4991386;28;20018;-58
2022/05/09 01:28:01;;;;;;;25.02;8.18;;;;;;;6.78;100.00;162337.66;4993617;28;20030;-58
2022/05/09 01:30:38;;;;;;;18.15;6.63;;;;;;;6.80;100.00;162343.06;4991990;28;20394;-58
2022/05/09 01:33:14;;;;;;;23.23;7.88;;;;;;;6.79;100.00;162340.38;4991596;28;20030;-58
2022/05/09 01:35:48;;;;;;;11.65;5.60;;;;;;;6.76;100.00;162333.66;4991269;28;20629;-58
2022/05/09 01:38:31;;;;;;;33.72;9.07;;;;;;;6.76;100.00;162332.28;4989333;28;20397;-58
2022/05/09 01:40:56;;;;;;;16.88;8.57;;;;;;;6.74;100.00;162326.94;4989978;28;20517;-58
2022/05/09 01:43:49;;;;;;;16.23;5.90;;;;;;;6.72;100.00;162321.53;4989439;28;20140;-58
2022/05/09 01:46:17;;;;;;;11.88;5.63;;;;;;;6.70;100.00;162316.13;4982694;28;20046;-58
2022/05/09 01:51:28;;;;;;;18.02;8.32;;;;;;;6.61;100.00;162294.56;4990620;28;20037;-58
2022/05/09 01:53:54;;;;;;;11.73;5.43;;;;;;;6.60;100.00;162291.88;4989803;28;20034;-58
2022/05/09 01:56:22;;;;;;;24.63;6.25;;;;;;;6.57;100.00;162282.44;4988854;28;20034;-58
2022/05/09 01:58:49;;;;;;;15.93;6.15;;;;;;;6.53;100.00;162271.72;4993194;28;20015;-58
2022/05/09 02:01:16;;;;;;;18.20;6.45;;;;;;;6.48;100.00;162259.59;4989832;28;20034;-57
2022/05/09 02:03:42;;;;;;;17.77;8.23;;;;;;;6.44;100.00;162248.84;4992751;28;20050;-58
2022/05/09 02:06:09;;;;;;;16.60;6.65;;;;;;;6.38;100.00;162234.03;4993427;28;20436;-58
2022/05/09 02:08:36;;;;;;;15.55;6.25;;;;;;;6.31;100.00;162215.16;4987298;28;20557;-58
2022/05/09 02:11:02;;;;;;;16.60;6.00;;;;;;;6.27;100.00;162205.75;4988947;28;20066;-58
2022/05/09 02:13:27;;;;;;;12.57;6.82;;;;;;;6.25;100.00;162199.03;4991380;28;20130;-58
2022/05/09 02:15:53;;;;;;;18.48;9.18;;;;;;;6.21;100.00;162189.59;4991983;28;20049;-58
2022/05/09 02:18:18;;;;;;;14.68;7.43;;;;;;;6.16;100.00;162176.13;4991561;28;20034;-58
2022/05/09 02:20:43;;;;;;;17.05;8.02;;;;;;;6.12;100.00;162165.38;4989219;28;20026;-58
2022/05/09 02:23:09;;;;;;;16.23;6.43;;;;;;;6.04;100.00;162145.16;4991368;28;20042;-58
2022/05/09 02:25:36;;;;;;;15.13;6.80;;;;;;;5.96;100.00;162124.94;4992375;28;20030;-58
2022/05/09 02:28:06;;;;;;;23.65;7.30;;;;;;;5.90;100.00;162107.41;4991183;28;20042;-57
2022/05/09 02:30:33;;;;;;;19.95;7.32;;;;;;;5.82;100.00;162087.25;4990582;28;20088;-58
2022/05/09 02:32:58;;;;;;;21.45;8.35;;;;;;;5.80;100.00;162083.25;4989799;28;20493;-58
2022/05/09 02:35:23;;;;;;;23.85;6.88;;;;;;;5.81;100.00;162084.56;4988418;28;20041;-57
2022/05/09 02:37:50;;;;;;;22.83;6.85;;;;;;;5.79;100.00;162079.16;4991321;28;20022;-58
2022/05/09 02:40:17;;;;;;;14.52;5.88;;;;;;;5.74;100.00;162065.72;4992387;28;20041;-58
2022/05/09 02:42:43;;;;;;;19.15;8.05;;;;;;;5.64;100.00;162040.19;4990851;28;20038;-58
2022/05/09 02:45:09;;;;;;;12.77;7.13;;;;;;;5.45;100.00;161990.41;4991913;28;20034;-58
2022/05/09 02:47:34;;;;;;;18.52;7.82;;;;;;;5.38;100.00;161974.25;4990192;28;20049;-58
2022/05/09 02:49:59;;;;;;;13.95;6.53;;;;;;;5.34;100.00;161963.47;4987618;28;20436;-58
2022/05/09 02:52:25;;;;;;;27.23;9.27;;;;;;;5.30;100.00;161952.72;4989141;28;20031;-58
2022/05/09 02:54:50;;;;;;;16.67;7.10;;;;;;;5.27;100.00;161944.66;4991659;28;20037;-57
2022/05/09 02:57:15;;;;;;;17.98;7.57;;;;;;;5.20;100.00;161925.81;4986339;28;20057;-58
2022/05/09 02:59:41;;;;;;;19.75;8.05;;;;;;;5.08;100.00;161896.25;4991902;28;20022;-58
2022/05/09 03:02:08;;;;;;;16.95;7.22;;;;;;;5.07;100.00;161892.16;4989450;28;20042;-58
2022/05/09 03:04:40;;;;;;;15.30;6.53;;;;;;;5.03;100.00;161882.75;4990947;28;20077;-58
2022/05/09 03:07:11;;;;;;;22.08;7.05;;;;;;;5.01;100.00;161877.41;4990522;28;20038;-58
2022/05/09 03:09:37;;;;;;;14.55;8.90;;;;;;;4.96;100.00;161863.94;4991477;28;20029;-58
2022/05/09 03:12:04;;;;;;;12.02;6.85;;;;;;;4.86;100.00;161838.41;4989162;28;20046;-58
2022/05/09 03:14:30;;;;;;;13.75;7.30;;;;;;;4.76;100.00;161812.84;4989456;28;20018;-57
2022/05/09 03:16:56;;;;;;;23.48;7.45;;;;;;;4.70;100.00;161796.72;4989150;28;20038;-58
2022/05/09 03:19:21;;;;;;;7.47;6.20;;;;;;;4.67;100.00;161788.63;4991656;28;20049;-57
2022/05/09 03:21:48;;;;;;;24.25;8.27;;;;;;;4.65;100.00;161783.28;4990090;28;20477;-58
2022/05/09 03:24:13;;;;;;;27.33;10.57;;;;;;;4.58;100.00;161764.44;4988325;28;20026;-58
2022/05/09 03:26:39;;;;;;;34.05;8.98;;;;;;;4.49;100.00;161740.25;4987481;28;20037;-58
2022/05/09 03:29:04;;;;;;;14.57;7.38;;;;;;;4.35;100.00;161705.31;4991507;28;20061;-58
2022/05/09 03:31:30;;;;;;;22.77;8.65;;;;;;;4.21;100.00;161669.00;4989368;28;20038;-58
2022/05/09 03:33:55;;;;;;;26.85;9.30;;;;;;;4.12;100.00;161644.81;4991668;28;20020;-59
2022/05/09 03:36:21;;;;;;;24.15;8.82;;;;;;;4.06;100.00;161628.69;4989520;28;20045;-58
2022/05/09 03:38:46;;;;;;;24.50;9.68;;;;;;;4.01;100.00;161616.59;4988095;28;20790;-58
2022/05/09 03:41:12;;;;;;;33.20;8.23;;;;;;;3.94;100.00;161597.78;4990064;28;20074;-58
2022/05/09 03:43:37;;;;;;;26.40;7.22;;;;;;;3.90;100.00;161587.03;4987143;28;20446;-58
2022/05/09 03:46:03;;;;;;;24.70;8.40;;;;;;;3.81;100.00;161565.53;4986167;28;20049;-58
2022/05/09 03:48:28;;;;;;;16.52;8.85;;;;;;;3.78;100.00;161557.44;4987231;28;20042;-58
2022/05/09 03:50:56;;;;;;;25.30;10.23;;;;;;;3.74;100.00;161546.72;4989940;28;20053;-58
2022/05/09 03:53:23;;;;;;;24.25;9.93;;;;;;;3.73;100.00;161544.03;4985401;28;20035;-58
2022/05/09 03:55:48;;;;;;;19.58;10.25;;;;;;;3.69;100.00;161533.25;4986496;28;20094;-58
2022/05/09 03:58:15;;;;;;;28.25;9.73;;;;;;;3.66;100.00;161525.22;4989904;28;20042;-58
2022/05/09 04:00:41;;;;;;;21.02;7.63;;;;;;;3.61;100.00;161511.81;4987101;28;20043;-58
2022/05/09 04:03:06;;;;;;;21.52;10.18;;;;;;;3.55;100.00;161495.63;4987643;28;20383;-58
2022/05/09 04:05:32;;;;;;;23.48;8.52;;;;;;;3.58;100.00;161503.72;4989675;28;20037;-58
2022/05/09 04:08:00;;;;;;;21.30;8.77;;;;;;;3.56;100.00;161498.34;4990879;28;20026;-58
2022/05/09 04:10:31;;;;;;;13.40;8.70;;;;;;;3.51;100.00;161484.91;4989911;28;20030;-58
2022/05/09 04:12:58;;;;;;;14.43;11.23;;;;;;;3.52;100.00;161487.59;4982499;28;20460;-58
2022/05/09 04:18:08;;;;;;;17.83;7.90;;;;;;;3.56;100.00;161499.69;4988969;28;20037;-58
2022/05/09 04:20:34;;;;;;;22.50;9.88;;;;;;;3.59;100.00;161506.41;4985956;28;20026;-58
2022/05/09 04:23:00;;;;;;;18.85;10.30;;;;;;;3.60;100.00;161509.09;4982145;28;20030;-58
2022/05/09 04:25:27;;;;;;;20.35;9.77;;;;;;;3.62;100.00;161514.44;4989529;28;20015;-58
2022/05/09 04:27:54;;;;;;;18.60;8.23;;;;;;;3.63;100.00;161517.13;4989110;28;20073;-58
2022/05/09 04:30:19;;;;;;;17.38;9.38;;;;;;;3.63;100.00;161517.13;4971704;28;20055;-58
2022/05/09 04:32:45;;;;;;;29.98;9.75;;;;;;;3.62;100.00;161514.44;4970140;28;20469;-58
2022/05/09 04:35:17;;;;;;;23.75;9.18;;;;;;;3.59;100.00;161506.41;4980425;28;20030;-58
2022/05/09 04:37:45;;;;;;;23.17;10.80;;;;;;;3.53;100.00;161490.31;4986428;28;20070;-58
2022/05/09 04:40:11;;;;;;;20.13;12.48;;;;;;;3.72;100.00;161541.34;4989417;28;20479;-58
2022/05/09 04:42:36;;;;;;;17.73;9.93;;;;;;;3.79;100.00;161560.16;4986311;28;20062;-58
2022/05/09 04:45:02;;;;;;;28.73;11.13;;;;;;;3.88;100.00;161581.66;4990511;28;20026;-58
2022/05/09 04:47:27;;;;;;;22.55;9.40;;;;;;;4.00;100.00;161612.56;4988829;28;20413;-58
2022/05/09 04:49:53;;;;;;;21.25;10.63;;;;;;;4.08;100.00;161635.41;4990908;28;20022;-58
2022/05/09 04:52:18;;;;;;;26.55;11.63;;;;;;;4.26;100.00;161681.13;4988973;28;20641;-58
2022/05/09 04:54:43;;;;;;;24.00;10.15;;;;;;;4.40;100.00;161717.38;4990535;28;20018;-58
2022/05/09 04:57:09;;;;;;;21.98;11.82;;;;;;;4.53;100.00;161751.00;4989356;28;20042;-58
2022/05/09 04:59:34;;;;;;;24.33;11.27;;;;;;;4.69;100.00;161794.03;4990206;28;20065;-58
2022/05/09 05:02:00;;;;;;;25.02;11.77;;;;;;;4.86;100.00;161837.06;4992707;28;20042;-57
2022/05/09 05:04:25;;;;;;;22.77;11.85;;;;;;;5.04;100.00;161884.13;4994125;28;20042;-56
2022/05/09 05:06:51;;;;;;;20.90;9.80;;;;;;;5.20;100.00;161925.81;4992152;28;20034;-58
2022/05/09 05:09:16;;;;;;;23.33;9.57;;;;;;;5.37;100.00;161971.56;4994473;28;20023;-57
2022/05/09 05:11:41;;;;;;;31.48;9.35;;;;;;;5.52;100.00;162009.22;4992584;28;20043;-58
2022/05/09 05:14:07;;;;;;;21.10;10.25;;;;;;;5.66;100.00;162046.91;4994166;28;20026;-58
2022/05/09 05:19:16;;;;;;;26.83;11.32;;;;;;;6.02;100.00;162139.81;4992824;28;20154;-58
2022/05/09 05:21:43;;;;;;;16.98;8.48;;;;;;;6.15;100.00;162174.78;4991386;28;20097;-58
2022/05/09 05:24:08;;;;;;;21.52;11.15;;;;;;;6.29;100.00;162211.09;4993574;28;20109;-58
2022/05/09 05:26:34;;;;;;;18.50;10.05;;;;;;;6.43;100.00;162246.13;4992150;28;20458;-58
2022/05/09 05:28:59;;;;;;;25.48;10.10;;;;;;;6.53;100.00;162273.03;4993103;28;20034;-58
2022/05/09 05:31:24;;;;;;;17.40;10.82;;;;;;;6.65;100.00;162305.38;4992074;28;20097;-58
2022/05/09 05:33:50;;;;;;;22.13;10.13;;;;;;;6.80;100.00;162343.06;4993458;28;20470;-58
2022/05/09 05:36:16;;;;;;;22.80;9.85;;;;;;;6.78;100.00;162337.66;4992415;28;20061;-58
2022/05/09 05:38:43;;;;;;;19.08;9.27;;;;;;;7.00;100.00;162395.53;4994063;28;20226;-58
2022/05/09 05:41:09;;;;;;;19.33;9.10;;;;;;;7.14;100.00;162433.31;4992822;28;20045;-58
2022/05/09 05:43:35;;;;;;;22.45;8.80;;;;;;;7.26;100.00;162464.22;4993425;28;20385;-58
2022/05/09 05:46:00;;;;;;;14.98;9.10;;;;;;;7.39;100.00;162496.59;4992613;28;20042;-58
2022/05/09 05:48:25;;;;;;;24.48;11.63;;;;;;;7.48;100.00;162520.84;4993789;28;20512;-58
2022/05/09 05:50:52;;;;;;;23.75;8.50;;;;;;;7.65;100.00;162563.94;4992098;28;20062;-57
2022/05/09 05:53:18;;;;;;;18.95;8.98;;;;;;;7.77;100.00;162596.28;4994093;28;20037;-57
2022/05/09 05:55:44;;;;;;;19.92;9.48;;;;;;;7.86;100.00;162620.50;4992188;28;20035;-57
2022/05/09 05:58:09;;;;;;;19.77;9.40;;;;;;;7.96;100.00;162646.16;4993227;28;20041;-55
2022/05/09 06:00:36;;;;;;;27.38;9.05;;;;;;;8.10;100.00;162683.88;4992218;28;20025;-56
2022/05/09 06:03:01;;;;;;;16.75;8.68;;;;;;;8.23;100.00;162717.53;4993612;28;20030;-56
2022/05/09 06:05:26;;;;;;;24.05;11.27;;;;;;;8.41;100.00;162763.38;4991278;28;20030;-56
2022/05/09 06:07:54;;;;;;;26.48;8.40;;;;;;;8.54;100.00;162798.47;4992907;28;20034;-56
2022/05/09 06:10:20;;;;;;;12.75;9.32;;;;;;;8.66;100.00;162828.16;4990558;28;20022;-56
2022/05/09 06:12:46;;;;;;;24.17;11.93;;;;;;;8.79;100.00;162863.19;4991208;28;20449;-56
2022/05/09 06:17:57;;;;;;;24.98;9.63;;;;;;;9.16;100.00;162960.28;4991225;28;20413;-56
2022/05/09 06:20:23;;;;;;;23.27;9.60;;;;;;;9.37;100.00;163014.22;4991090;28;20470;-56
2022/05/09 06:22:49;;;;;;;27.25;10.38;;;;;;;9.52;100.00;163053.34;4992765;28;20068;-56
2022/05/09 06:25:17;;;;;;;15.43;6.75;;;;;;;9.68;100.00;163095.16;4992665;28;20037;-55
2022/05/09 06:27:43;;;;;;;14.65;6.72;;;;;;;9.82;100.00;163131.59;4990586;28;20049;-56
2022/05/09 06:30:11;;;;;;;13.77;8.50;;;;;;;9.97;100.00;163170.69;4992750;28;20022;-56
2022/05/09 06:32:37;;;;;;;22.92;8.02;;;;;;;10.20;100.00;163230.06;4990840;28;20050;-56
2022/05/09 06:35:05;;;;;;;18.08;7.47;;;;;;;10.36;100.00;163273.25;4992324;28;20026;-56
2022/05/09 06:37:35;;;;;;;19.67;7.82;;;;;;;10.54;100.00;163319.19;4991010;28;20036;-56
2022/05/09 06:40:01;;;;;;;25.55;8.90;;;;;;;10.81;100.00;163390.72;4989989;28;20034;-56
2022/05/09 06:42:27;;;;;;;21.67;8.57;;;;;;;11.16;100.00;163481.19;4990581;28;20043;-56
2022/05/09 06:44:53;;;;;;;19.65;7.32;;;;;;;11.85;100.00;163663.50;4992466;28;20076;-56
2022/05/09 06:47:18;;;;;;;20.10;7.07;;;;;;;13.24;100.00;164027.09;4990812;28;20401;-56
2022/05/09 06:49:44;;;;;;;17.60;6.60;;;;;;;14.60;100.00;164384.25;4991561;28;20022;-57
2022/05/09 06:52:09;;;;;;;12.68;6.43;;;;;;;15.54;100.00;164630.59;4986773;28;20061;-56
2022/05/09 06:54:34;;;;;;;17.52;5.60;;;;;;;16.17;100.00;164795.88;4990788;28;20029;-56
2022/05/09 06:57:00;;;;;;;14.07;6.10;;;;;;;16.71;100.00;164936.75;4990362;28;20042;-56
2022/05/09 06:59:25;;;;;;;14.68;5.80;;;;;;;16.68;100.00;164928.59;4991945;28;20022;-56
2022/05/09 07:01:51;;;;;;;11.43;5.55;;;;;;;16.77;100.00;164953.00;4989726;28;20038;-56
2022/05/09 07:04:17;;;;;;;15.70;6.97;;;;;;;16.64;100.00;164919.13;4991870;28;20030;-56
2022/05/09 07:06:42;;;;;;;24.83;6.57;;;;;;;16.83;100.00;164966.53;4989937;28;20038;-56
2022/05/09 07:09:15;;;;;;;9.55;6.05;;;;;;;16.96;100.00;165001.78;4991884;28;20069;-56
2022/05/09 07:11:40;;;;;;;9.50;4.20;;;;;;;16.85;100.00;164971.97;4988076;28;20045;-56
2022/05/09 07:14:07;;;;;;;14.90;5.57;;;;;;;17.01;100.00;165015.38;4991127;28;20026;-56
2022/05/09 07:16:32;;;;;;;14.15;5.53;;;;;;;17.04;100.00;165023.47;4990122;28;20116;-56
2022/05/09 07:18:58;;;;;;;17.65;5.72;;;;;;;16.87;100.00;164977.34;4991682;28;20022;-56
2022/05/09 07:21:24;;;;;;;10.48;4.78;;;;;;;16.75;100.00;164947.56;4989801;28;20034;-56
2022/05/09 07:23:50;;;;;;;17.50;5.85;;;;;;;16.76;100.00;164950.28;4991198;28;20030;-56
2022/05/09 07:26:15;;;;;;;24.52;6.20;;;;;;;16.42;100.00;164860.84;4990681;28;20556;-56
2022/05/09 07:28:42;;;;;;;19.77;6.53;;;;;;;16.40;100.00;164854.06;4991359;28;20121;-56
2022/05/09 07:31:08;;;;;;;16.77;6.15;;;;;;;16.16;100.00;164793.16;4990458;28;20100;-56
2022/05/09 07:33:34;;;;;;;17.60;6.50;;;;;;;16.01;100.00;164753.84;4991318;28;20018;-56
2022/05/09 07:35:59;;;;;;;22.40;7.25;;;;;;;15.72;100.00;164676.66;4990296;28;20050;-56
2022/05/09 07:38:25;;;;;;;19.60;7.30;;;;;;;15.68;100.00;164667.16;4992050;28;20018;-56
2022/05/09 07:40:51;;;;;;;15.70;5.13;;;;;;;15.66;100.00;164661.75;4990365;28;20097;-56
2022/05/09 07:43:20;;;;;;;19.70;7.22;;;;;;;15.76;100.00;164687.47;4991501;28;20081;-56
2022/05/09 07:45:47;;;;;;;15.18;5.93;;;;;;;16.13;100.00;164783.66;4990134;28;20038;-55
2022/05/09 07:48:14;;;;;;;24.55;10.95;;;;;;;16.29;100.00;164825.63;4991559;28;20041;-56
2022/05/09 07:50:40;;;;;;;15.20;5.85;;;;;;;16.23;100.00;164809.41;4988476;28;20397;-55
2022/05/09 07:53:14;;;;;;;17.42;5.75;;;;;;;16.44;100.00;164866.28;4991884;28;20026;-56
2022/05/09 07:55:42;;;;;;;16.30;5.68;;;;;;;16.65;100.00;164920.44;4990111;28;20042;-55
2022/05/09 07:58:09;;;;;;;11.00;5.88;;;;;;;16.81;100.00;164963.81;4990813;28;20027;-55
2022/05/09 08:00:35;;;;;;;13.82;5.57;;;;;;;17.05;100.00;165024.88;4989606;28;20097;-56
2022/05/09 08:03:00;;;;;;;14.40;5.07;;;;;;;17.28;100.00;165085.81;4991111;28;20028;-56
2022/05/09 08:05:26;;;;;;;10.60;5.13;;;;;;;17.47;100.00;165134.59;4989537;28;20034;-55
2022/05/09 08:07:51;;;;;;;14.57;5.47;;;;;;;17.77;100.00;165215.91;4990974;28;20018;-56
2022/05/09 08:10:17;;;;;;;16.92;6.45;;;;;;;17.89;100.00;165245.75;4991001;28;20034;-56
2022/05/09 08:12:43;;;;;;;13.82;4.22;;;;;;;18.23;100.00;165335.28;4989515;28;20035;-56
2022/05/09 08:15:10;;;;;;;11.05;4.85;;;;;;;18.63;100.00;165441.06;4991668;28;20397;-56
2022/05/09 08:17:35;;;;;;;10.25;4.05;;;;;;;18.86;97.47;165500.72;4990091;28;20137;-56
2022/05/09 08:20:00;;;;;;;17.33;4.68;;;;;;;19.23;98.49;165598.44;4991329;28;20023;-56
2022/05/09 08:22:28;;;;;;;13.77;4.72;;;;;;;19.83;98.21;165755.84;4990094;28;20042;-56
2022/05/09 08:25:01;;;;;;;9.77;4.65;;;;;;;20.06;94.01;165815.59;4991499;28;20030;-56
2022/05/09 08:27:27;;;;;;;12.45;5.47;;;;;;;20.46;85.80;165921.44;4989734;28;20185;-54
2022/05/09 08:29:56;;;;;;;10.43;5.50;;;;;;;20.53;82.59;165940.44;4991491;28;20426;-54
2022/05/09 08:32:22;;;;;;;8.40;4.47;;;;;;;20.17;85.53;165845.44;4989925;28;20568;-54
2022/05/09 08:34:51;;;;;;;13.68;5.75;;;;;;;20.24;81.99;165864.44;4991148;28;20030;-54
2022/05/09 08:37:18;;;;;;;;;;;;;;;20.53;77.32;165940.44;4994400;28;20579;-54
2022/05/09 08:39:44;;;;;;;11.13;4.38;;;;;;;20.39;77.01;165902.44;4995238;28;19909;-54
2022/05/09 08:42:15;;;;;;;17.35;4.93;;;;;;;20.54;77.78;165943.19;4993522;28;20401;-54
2022/05/09 08:45:31;;;;;;;12.13;3.65;;;;;;;20.44;75.10;165916.00;4994964;28;20022;-54
2022/05/09 08:48:26;;;;;;;6.50;3.03;;;;;;;20.07;76.40;165818.28;4967894;28;20038;-54
2022/05/09 08:51:03;;;;;;;9.75;4.47;;;;;;;20.18;72.26;165848.16;4966459;28;20057;-54
2022/05/09 08:53:33;;;;;;;9.48;4.90;;;;;;;20.06;72.22;165816.94;4994383;28;20026;-56
2022/05/09 08:55:59;;;;;;;17.15;4.28;;;;;;;19.78;72.65;165742.25;4993028;28;20034;-56
2022/05/09 08:58:44;;;;;;;8.73;3.38;;;;;;;20.71;69.13;165986.63;4995014;28;20030;-56
2022/05/09 09:01:39;;;;;;;5.80;3.42;;;;;;;20.58;65.10;165952.69;4993599;28;20062;-56
2022/05/09 09:04:12;;;;;;;9.48;3.53;;;;;;;20.79;68.07;166007.03;4992386;28;20042;-55
2022/05/09 09:07:20;;;;;;;11.18;4.82;;;;;;;20.91;64.78;166040.97;4993215;28;20045;-56
2022/05/09 09:10:24;;;;;;;8.43;3.05;;;;;;;21.22;63.92;166122.47;4994335;28;20449;-56
2022/05/09 09:13:19;;;;;;;9.75;3.75;;;;;;;21.37;61.25;166161.81;4993180;28;20045;-56
2022/05/09 09:16:11;;;;;;;9.57;3.38;;;;;;;22.19;60.50;166376.50;4992992;28;20085;-56
2022/05/09 09:19:12;;;;;;;6.22;2.60;;;;;;;22.23;59.57;166387.38;4994045;28;20073;-56
2022/05/09 09:21:45;;;;;;;10.75;3.30;;;;;;;22.62;56.03;166489.34;4971718;28;20515;-56
2022/05/09 09:24:13;;;;;;;9.98;3.42;;;;;;;22.32;56.02;166410.47;4994504;28;20026;-56
2022/05/09 09:27:13;;;;;;;12.48;2.65;;;;;;;22.84;54.01;166546.41;4992591;28;20073;-56
2022/05/09 09:29:46;;;;;;;6.63;3.15;;;;;;;22.53;56.09;166464.88;4994128;28;20041;-56
2022/05/09 09:32:16;;;;;;;11.23;4.72;;;;;;;22.72;56.90;166515.16;4992823;28;20121;-56
2022/05/09 09:34:47;;;;;;;14.60;4.10;;;;;;;22.52;56.45;166462.19;4993813;28;20105;-56
2022/05/09 09:37:19;;;;;;;17.88;4.68;;;;;;;22.46;56.81;166448.56;4992787;28;20150;-56
2022/05/09 09:39:45;;;;;;;6.93;3.47;;;;;;;22.87;59.49;166554.59;4993783;28;20054;-56
2022/05/09 09:42:10;;;;;;;15.25;4.05;;;;;;;22.09;54.72;166350.69;4991949;28;20042;-56
2022/05/09 09:44:38;;;;;;;9.27;3.97;;;;;;;22.34;57.65;166417.25;4993848;28;20026;-56
2022/05/09 09:47:09;;;;;;;;;;;;;;;21.40;56.98;166168.66;4992777;28;20042;-56
2022/05/09 09:49:41;;;;;;;6.15;2.65;;;;;;;21.94;60.75;166309.94;4993433;28;19937;-56
2022/05/09 09:52:32;;;;;;;16.92;6.32;;;;;;;22.38;60.20;166426.75;4992545;28;20408;-56
2022/05/09 09:55:06;;;;;;;10.43;4.18;;;;;;;22.64;60.57;166494.78;4993659;28;20026;-56
2022/05/09 09:57:35;;;;;;;12.93;3.90;;;;;;;22.81;60.81;166541.00;4989289;28;20053;-56
2022/05/09 10:00:15;;;;;;;10.50;3.25;;;;;;;22.90;58.40;166562.72;4992251;28;20108;-56
2022/05/09 10:02:40;;;;;;;12.93;4.22;;;;;;;22.74;58.83;166522.00;4991772;28;20034;-56
2022/05/09 10:05:12;;;;;;;14.02;3.53;;;;;;;22.78;58.18;166532.84;4993539;28;20058;-56
2022/05/09 10:07:43;;;;;;;14.68;5.53;;;;;;;23.00;60.02;166589.91;4983706;28;20043;-56
2022/05/09 10:10:23;;;;;;;8.73;4.55;;;;;;;22.70;59.78;166511.09;4980077;28;20410;-56
2022/05/09 10:12:55;;;;;;;19.35;3.83;;;;;;;22.70;60.03;166511.09;4992011;28;20049;-56
2022/05/09 10:15:23;;;;;;;15.20;4.57;;;;;;;23.21;61.25;166644.31;4993646;28;20030;-56
2022/05/09 10:17:48;;;;;;;12.38;4.22;;;;;;;23.48;60.32;166715.03;4991158;28;20046;-56
2022/05/09 10:20:33;;;;;;;13.25;3.67;;;;;;;23.84;60.72;166810.22;4989005;28;20141;-56
2022/05/09 10:26:18;;;;;;;9.82;3.65;;;;;;;23.81;59.73;166802.03;4991606;28;20461;-56
2022/05/09 10:28:49;;;;;;;9.95;3.65;;;;;;;23.59;56.82;166744.94;4992433;28;20025;-56
2022/05/09 10:31:23;;;;;;;4.53;3.40;;;;;;;23.49;59.17;166717.78;4991349;28;20046;-56
2022/05/09 10:34:15;;;;;;;11.50;5.43;;;;;;;23.60;58.43;166749.00;4992554;28;20145;-56
2022/05/09 10:36:47;;;;;;;7.15;3.45;;;;;;;23.96;58.10;166842.88;4981591;28;20038;-56
2022/05/09 10:39:28;;;;;;;7.90;3.00;;;;;;;24.19;60.06;166904.13;4992881;28;20026;-56
2022/05/09 10:42:00;;;;;;;11.00;3.47;;;;;;;24.14;60.27;166889.13;4990705;28;20097;-56
2022/05/09 10:44:39;;;;;;;11.68;3.45;;;;;;;24.12;59.78;166885.06;4991701;28;20076;-56
2022/05/09 10:47:15;;;;;;;10.50;4.10;;;;;;;24.05;61.22;166867.38;4988114;28;20038;-56
2022/05/09 10:49:58;;;;;;;13.88;4.43;;;;;;;24.02;58.45;166859.19;4989562;28;20027;-56
2022/05/09 10:52:33;;;;;;;10.73;4.65;;;;;;;24.33;59.49;166939.47;4991561;28;20044;-56
2022/05/09 10:55:44;;;;;;;7.65;4.28;;;;;;;24.03;57.37;166861.91;4992386;28;20049;-56
2022/05/09 10:58:35;;;;;;;9.68;5.05;;;;;;;24.03;59.49;166861.91;4979467;28;20034;-56
2022/05/09 11:01:07;;;;;;;13.50;4.93;;;;;;;24.04;61.07;166863.31;4990037;28;20132;-56
2022/05/09 11:03:37;;;;;;;12.60;4.13;;;;;;;24.04;59.35;166863.31;4991882;28;20050;-56
2022/05/09 11:06:16;;;;;;;9.93;3.90;;;;;;;24.21;57.76;166908.19;4991370;28;20042;-56
2022/05/09 11:08:57;;;;;;;8.43;4.13;;;;;;;24.19;60.35;166902.72;4991791;28;20566;-56
2022/05/09 11:11:25;;;;;;;13.45;4.57;;;;;;;24.31;58.78;166935.34;4991000;28;20042;-56
2022/05/09 11:14:04;;;;;;;11.48;5.35;;;;;;;24.45;60.15;166970.75;4992266;28;20033;-57
2022/05/09 11:16:47;;;;;;;18.45;5.47;;;;;;;24.62;60.33;167016.97;4990384;28;20042;-56
2022/05/09 11:19:29;;;;;;;10.18;4.25;;;;;;;24.90;58.81;167090.53;4990784;28;20473;-56
2022/05/09 11:22:03;;;;;;;16.20;4.22;;;;;;;25.00;58.35;167117.69;4988923;28;20073;-56
2022/05/09 11:24:54;;;;;;;7.53;4.68;;;;;;;24.43;60.21;166966.63;4990467;28;20106;-57
2022/05/09 11:27:44;;;;;;;12.05;5.32;;;;;;;25.08;57.47;167136.75;4986926;28;20037;-57
2022/05/09 11:30:21;;;;;;;10.52;3.78;;;;;;;24.62;59.21;167015.63;4989394;28;20034;-56
2022/05/09 11:32:58;;;;;;;10.20;4.18;;;;;;;24.53;60.04;166992.53;4987230;28;20073;-56
2022/05/09 11:35:37;;;;;;;7.93;4.03;;;;;;;23.83;60.82;166808.81;4987532;28;20026;-56
2022/05/09 11:38:19;;;;;;;19.77;6.15;;;;;;;24.14;61.06;166890.47;4989136;28;20053;-56
2022/05/09 11:41:11;;;;;;;15.82;5.22;;;;;;;23.53;62.82;166728.63;4982469;28;20045;-56
2022/05/09 11:44:06;;;;;;;14.27;5.25;;;;;;;24.07;60.09;166872.84;4991577;28;20027;-56